createdAt,value
2023-04-27T00:02:20.396Z,10.30
2023-04-27T00:04:48.107Z,10.30
2023-04-27T00:07:15.690Z,10.30
2023-04-27T00:09:42.938Z,10.30
2023-04-27T00:12:10.495Z,10.30
2023-04-27T00:14:37.733Z,10.30
2023-04-27T00:17:05.046Z,10.30
2023-04-27T00:19:32.551Z,10.40
2023-04-27T00:22:00.268Z,10.30
2023-04-27T00:24:27.752Z,10.30
2023-04-27T00:26:55.059Z,10.30
2023-04-27T00:29:22.327Z,10.30
2023-04-27T00:31:49.661Z,10.30
2023-04-27T00:34:16.954Z,10.30
2023-04-27T00:36:47.316Z,10.40
2023-04-27T00:39:14.823Z,10.30
2023-04-27T00:41:42.406Z,10.30
2023-04-27T00:44:09.797Z,10.40
2023-04-27T00:46:37.133Z,10.30
2023-04-27T00:49:04.752Z,10.30
2023-04-27T00:51:32.392Z,10.30
2023-04-27T00:54:00.911Z,10.30
2023-04-27T00:56:28.496Z,10.20
2023-04-27T00:58:55.997Z,10.20
2023-04-27T01:01:24.125Z,10.10
2023-04-27T01:03:51.728Z,10.10
2023-04-27T01:06:19.304Z,10.00
2023-04-27T01:08:47.007Z,10.00
2023-04-27T01:11:14.368Z,9.90
2023-04-27T01:13:41.786Z,9.90
2023-04-27T01:16:09.076Z,9.80
2023-04-27T01:18:40.867Z,9.80
2023-04-27T01:21:08.424Z,9.80
2023-04-27T01:23:35.804Z,9.80
2023-04-27T01:26:04.310Z,9.80
2023-04-27T01:28:31.825Z,9.80
2023-04-27T01:31:01.214Z,9.70
2023-04-27T01:33:28.628Z,9.70
2023-04-27T01:35:56.241Z,9.70
2023-04-27T01:38:24.191Z,9.70
2023-04-27T01:40:51.519Z,9.70
2023-04-27T01:43:21.161Z,9.70
2023-04-27T01:45:48.675Z,9.70
2023-04-27T01:48:16.566Z,9.70
2023-04-27T01:50:44.663Z,9.70
2023-04-27T01:53:12.337Z,9.60
2023-04-27T01:55:39.836Z,9.60
2023-04-27T01:58:07.130Z,9.50
2023-04-27T02:00:34.556Z,9.50
2023-04-27T02:03:02.753Z,9.40
2023-04-27T02:05:30.430Z,9.30
2023-04-27T02:07:57.874Z,9.30
2023-04-27T02:10:25.386Z,9.20
2023-04-27T02:12:57.264Z,9.10
2023-04-27T02:15:24.832Z,9.00
2023-04-27T02:17:52.549Z,9.00
2023-04-27T02:20:19.896Z,8.90
2023-04-27T02:22:47.223Z,8.90
2023-04-27T02:25:14.696Z,8.80
2023-04-27T02:27:43.976Z,8.80
2023-04-27T02:30:12.887Z,8.70
2023-04-27T02:32:41.589Z,8.70
2023-04-27T02:35:09.673Z,8.70
2023-04-27T02:37:37.371Z,8.60
2023-04-27T02:40:07.960Z,8.50
2023-04-27T02:42:35.882Z,8.50
2023-04-27T02:45:04.220Z,8.50
2023-04-27T02:47:31.568Z,8.40
2023-04-27T02:49:58.875Z,8.40
2023-04-27T02:52:26.576Z,8.40
2023-04-27T02:54:54.070Z,8.30
2023-04-27T02:57:21.564Z,8.30
2023-04-27T02:59:48.898Z,8.30
2023-04-27T03:02:16.468Z,8.30
2023-04-27T03:04:44.424Z,8.30
2023-04-27T03:07:12.877Z,8.30
2023-04-27T03:09:40.333Z,8.40
2023-04-27T03:12:08.229Z,8.40
2023-04-27T03:14:35.653Z,8.40
2023-04-27T03:17:03.324Z,8.50
2023-04-27T03:19:30.744Z,8.50
2023-04-27T03:21:58.149Z,8.40
2023-04-27T03:24:25.724Z,8.40
2023-04-27T03:26:53.002Z,8.40
2023-04-27T03:29:21.753Z,8.30
2023-04-27T03:31:49.089Z,8.30
2023-04-27T03:34:16.932Z,8.30
2023-04-27T03:36:44.208Z,8.20
2023-04-27T03:39:11.940Z,8.20
2023-04-27T03:41:39.562Z,8.20
2023-04-27T03:44:07.413Z,8.20
2023-04-27T03:46:35.146Z,8.20
2023-04-27T03:49:03.430Z,8.20
2023-04-27T03:51:34.716Z,8.20
2023-04-27T03:54:02.033Z,8.30
2023-04-27T03:56:30.201Z,8.30
2023-04-27T03:58:57.683Z,8.30
2023-04-27T04:01:37.261Z,8.40
2023-04-27T04:04:04.881Z,8.30
2023-04-27T04:06:32.946Z,8.30
2023-04-27T04:09:00.511Z,8.40
2023-04-27T04:11:27.944Z,8.40
2023-04-27T04:13:58.281Z,8.50
2023-04-27T04:16:25.815Z,8.60
2023-04-27T04:18:53.798Z,8.90
2023-04-27T04:21:24.621Z,9.10
2023-04-27T04:23:51.900Z,9.30
2023-04-27T04:26:20.678Z,9.70
2023-04-27T04:28:47.955Z,10.20
2023-04-27T04:31:17.508Z,10.50
2023-04-27T04:33:45.067Z,10.90
2023-04-27T04:36:12.342Z,11.30
2023-04-27T04:38:39.784Z,11.70
2023-04-27T04:41:07.435Z,12.10
2023-04-27T04:43:34.810Z,12.40
2023-04-27T04:46:06.515Z,12.70
2023-04-27T04:48:34.932Z,13.10
2023-04-27T04:51:02.237Z,13.50
2023-04-27T04:53:30.046Z,13.90
2023-04-27T04:55:57.575Z,14.10
2023-04-27T04:58:25.033Z,14.40
2023-04-27T05:00:52.282Z,14.70
2023-04-27T05:03:21.388Z,14.90
2023-04-27T05:05:48.800Z,15.20
2023-04-27T05:08:17.112Z,15.50
2023-04-27T05:10:52.893Z,15.70
2023-04-27T05:13:21.104Z,16.00
2023-04-27T05:15:48.595Z,16.30
2023-04-27T05:18:16.091Z,16.40
2023-04-27T05:20:43.373Z,16.40
2023-04-27T05:23:10.833Z,16.30
2023-04-27T05:25:41.656Z,16.10
2023-04-27T05:28:09.954Z,15.90
2023-04-27T05:30:38.215Z,15.80
2023-04-27T05:33:05.725Z,15.70
2023-04-27T05:35:33.420Z,15.60
2023-04-27T05:38:01.160Z,15.50
2023-04-27T05:40:28.836Z,15.40
2023-04-27T05:42:56.458Z,15.40
2023-04-27T05:45:23.781Z,15.30
2023-04-27T05:47:51.061Z,15.30
2023-04-27T05:50:18.561Z,15.30
2023-04-27T05:52:46.318Z,15.20
2023-04-27T05:55:13.781Z,15.20
2023-04-27T05:57:41.351Z,15.20
2023-04-27T06:00:11.093Z,15.20
2023-04-27T06:02:41.529Z,15.20
2023-04-27T06:05:09.785Z,15.20
2023-04-27T06:07:37.839Z,15.30
2023-04-27T06:10:05.956Z,15.50
2023-04-27T06:12:33.605Z,15.50
2023-04-27T06:15:01.414Z,15.90
2023-04-27T06:17:29.085Z,16.10
2023-04-27T06:19:56.535Z,16.10
2023-04-27T06:22:23.840Z,16.20
2023-04-27T06:24:51.212Z,16.20
2023-04-27T06:27:18.467Z,16.20
2023-04-27T06:29:45.869Z,16.20
2023-04-27T06:32:13.197Z,16.40
2023-04-27T06:34:40.490Z,16.60
2023-04-27T06:37:08.349Z,17.10
2023-04-27T06:39:36.892Z,17.40
2023-04-27T06:42:04.475Z,17.60
2023-04-27T06:44:32.588Z,17.60
2023-04-27T06:46:59.820Z,17.40
2023-04-27T06:49:27.221Z,17.30
2023-04-27T06:51:54.591Z,17.40
2023-04-27T06:54:22.309Z,17.60
2023-04-27T06:56:49.644Z,17.80
2023-04-27T06:59:16.892Z,17.90
2023-04-27T07:01:44.626Z,18.00
2023-04-27T07:04:12.416Z,18.20
2023-04-27T07:06:39.719Z,18.30
2023-04-27T07:09:16.372Z,18.50
2023-04-27T07:11:53.619Z,18.80
2023-04-27T07:14:21.033Z,18.70
2023-04-27T07:16:48.510Z,18.70
2023-04-27T07:19:16.083Z,18.70
2023-04-27T07:21:43.784Z,18.50
2023-04-27T07:24:11.134Z,18.40
2023-04-27T07:26:38.395Z,18.50
2023-04-27T07:29:14.530Z,18.80
2023-04-27T07:31:52.895Z,19.10
2023-04-27T07:34:20.502Z,19.30
2023-04-27T07:36:47.909Z,19.50
2023-04-27T07:39:15.399Z,19.70
2023-04-27T07:41:42.950Z,19.80
2023-04-27T07:44:10.280Z,19.90
2023-04-27T07:46:38.818Z,19.90
2023-04-27T07:49:06.379Z,20.00
2023-04-27T07:51:34.679Z,20.20
2023-04-27T07:54:02.906Z,20.30
2023-04-27T07:56:30.412Z,20.50
2023-04-27T07:58:57.874Z,20.60
2023-04-27T08:01:25.349Z,20.70
2023-04-27T08:03:52.799Z,20.50
2023-04-27T08:06:21.032Z,20.50
2023-04-27T08:08:49.014Z,20.70
2023-04-27T08:11:16.300Z,20.80
2023-04-27T08:13:43.521Z,21.00
2023-04-27T08:16:11.224Z,21.10
2023-04-27T08:18:38.550Z,21.20
2023-04-27T08:21:05.945Z,21.10
2023-04-27T08:23:33.480Z,21.00
2023-04-27T08:26:00.811Z,21.10
2023-04-27T08:28:28.131Z,21.40
2023-04-27T08:30:55.663Z,21.60
2023-04-27T08:33:23.341Z,21.80
2023-04-27T08:35:50.717Z,21.80
2023-04-27T08:38:18.111Z,21.70
2023-04-27T08:40:45.766Z,21.80
2023-04-27T08:43:13.499Z,22.10
2023-04-27T08:45:48.728Z,22.20
2023-04-27T08:48:16.386Z,22.20
2023-04-27T08:50:45.404Z,22.00
2023-04-27T08:53:22.525Z,21.60
2023-04-27T08:55:50.707Z,21.50
2023-04-27T08:58:17.955Z,21.40
2023-04-27T09:00:46.091Z,21.40
2023-04-27T09:03:24.936Z,21.40
2023-04-27T09:06:00.667Z,21.40
2023-04-27T09:08:42.179Z,21.70
2023-04-27T09:11:09.480Z,21.80
2023-04-27T09:13:38.389Z,21.90
2023-04-27T09:16:06.470Z,21.80
2023-04-27T09:18:37.916Z,21.50
2023-04-27T09:21:07.072Z,21.40
2023-04-27T09:23:36.782Z,21.60
2023-04-27T09:26:08.202Z,21.80
2023-04-27T09:28:39.292Z,21.90
2023-04-27T09:31:09.479Z,21.80
2023-04-27T09:33:37.043Z,21.90
2023-04-27T09:36:06.412Z,21.90
2023-04-27T09:38:34.647Z,21.90
2023-04-27T09:41:02.389Z,22.00
2023-04-27T09:43:31.467Z,22.20
2023-04-27T09:45:59.149Z,22.30
2023-04-27T09:48:27.075Z,22.50
2023-04-27T09:50:54.739Z,22.50
2023-04-27T09:53:44.956Z,22.40
2023-04-27T09:56:46.597Z,22.30
2023-04-27T09:59:32.475Z,22.40
2023-04-27T10:02:10.004Z,22.00
2023-04-27T10:04:59.994Z,21.70
2023-04-27T10:07:28.072Z,21.80
2023-04-27T10:10:00.850Z,21.90
2023-04-27T10:12:36.554Z,21.90
2023-04-27T10:15:15.837Z,22.20
2023-04-27T10:17:53.045Z,22.40
2023-04-27T10:20:31.054Z,22.40
2023-04-27T10:22:59.451Z,22.30
2023-04-27T10:25:36.674Z,22.30
2023-04-27T10:28:04.562Z,22.60
2023-04-27T10:30:43.587Z,22.40
2023-04-27T10:33:11.954Z,21.90
2023-04-27T10:35:42.226Z,21.40
2023-04-27T10:38:10.904Z,21.00
2023-04-27T10:40:39.328Z,20.80
2023-04-27T10:43:16.340Z,20.90
2023-04-27T10:45:44.630Z,21.40
2023-04-27T10:48:15.867Z,22.00
2023-04-27T10:50:44.956Z,22.40
2023-04-27T10:53:12.769Z,22.70
2023-04-27T10:55:40.306Z,22.80
2023-04-27T10:58:07.974Z,22.50
2023-04-27T11:00:44.626Z,22.30
2023-04-27T11:03:21.564Z,22.20
2023-04-27T11:05:50.329Z,21.60
2023-04-27T11:08:19.420Z,21.40
2023-04-27T11:10:50.139Z,21.10
2023-04-27T11:13:25.203Z,21.10
2023-04-27T11:15:57.813Z,20.90
2023-04-27T11:18:31.668Z,20.70
2023-04-27T11:21:10.512Z,20.60
2023-04-27T11:23:39.035Z,20.90
2023-04-27T11:26:21.526Z,21.30
2023-04-27T11:29:02.011Z,21.60
2023-04-27T11:31:43.883Z,21.70
2023-04-27T11:34:16.831Z,21.70
2023-04-27T11:36:44.425Z,21.50
2023-04-27T11:39:22.422Z,21.30
2023-04-27T11:41:50.134Z,21.20
2023-04-27T11:44:17.510Z,21.10
2023-04-27T11:46:47.475Z,21.00
2023-04-27T11:49:15.506Z,21.00
2023-04-27T11:51:45.034Z,21.00
2023-04-27T11:54:13.167Z,20.90
2023-04-27T11:56:42.369Z,20.60
2023-04-27T11:59:21.321Z,20.10
2023-04-27T12:01:48.893Z,19.70
2023-04-27T12:04:16.997Z,19.60
2023-04-27T12:06:44.591Z,19.40
2023-04-27T12:09:12.109Z,19.10
2023-04-27T12:11:39.482Z,19.00
2023-04-27T12:14:07.223Z,19.10
2023-04-27T12:16:34.594Z,19.30
2023-04-27T12:19:01.919Z,19.60
2023-04-27T12:21:29.210Z,19.80
2023-04-27T12:23:56.526Z,20.00
2023-04-27T12:26:24.053Z,20.10
2023-04-27T12:28:51.726Z,20.00
2023-04-27T12:31:25.315Z,20.30
2023-04-27T12:33:54.292Z,20.60
2023-04-27T12:36:21.528Z,20.60
2023-04-27T12:38:48.846Z,20.50
2023-04-27T12:41:16.365Z,20.50
2023-04-27T12:43:46.108Z,20.50
2023-04-27T12:46:13.575Z,20.40
2023-04-27T12:48:41.128Z,20.10
2023-04-27T12:51:08.895Z,19.90
2023-04-27T12:53:36.149Z,20.00
2023-04-27T12:56:04.690Z,20.20
2023-04-27T12:58:32.142Z,20.20
2023-04-27T13:00:59.410Z,20.30
2023-04-27T13:03:26.957Z,20.40
2023-04-27T13:05:54.766Z,20.20
2023-04-27T13:08:22.441Z,19.90
2023-04-27T13:10:49.959Z,19.80
2023-04-27T13:13:17.365Z,19.80
2023-04-27T13:15:44.686Z,19.90
2023-04-27T13:18:12.230Z,20.10
2023-04-27T13:20:39.941Z,20.10
2023-04-27T13:23:07.365Z,20.20
2023-04-27T13:25:34.628Z,20.30
2023-04-27T13:28:02.151Z,20.30
2023-04-27T13:30:31.116Z,20.20
2023-04-27T13:33:10.440Z,20.30
2023-04-27T13:35:46.105Z,20.50
2023-04-27T13:38:13.499Z,20.60
2023-04-27T13:40:41.058Z,20.70
2023-04-27T13:43:08.378Z,20.80
2023-04-27T13:45:36.028Z,20.90
2023-04-27T13:48:03.511Z,21.00
2023-04-27T13:50:30.844Z,21.10
2023-04-27T13:52:58.082Z,21.20
2023-04-27T13:55:25.913Z,21.00
2023-04-27T13:57:53.151Z,20.60
2023-04-27T14:00:20.759Z,20.50
2023-04-27T14:02:48.206Z,20.50
2023-04-27T14:05:15.652Z,20.30
2023-04-27T14:07:42.934Z,20.20
2023-04-27T14:10:10.984Z,20.40
2023-04-27T14:12:38.390Z,20.30
2023-04-27T14:15:06.160Z,20.20
2023-04-27T14:17:33.795Z,20.30
2023-04-27T14:20:01.716Z,20.30
2023-04-27T14:22:29.567Z,20.30
2023-04-27T14:24:56.824Z,20.30
2023-04-27T14:27:24.276Z,20.30
2023-04-27T14:29:51.844Z,20.20
2023-04-27T14:32:21.203Z,20.10
2023-04-27T14:34:49.763Z,19.90
2023-04-27T14:37:17.770Z,19.90
2023-04-27T14:39:46.461Z,19.90
2023-04-27T14:42:13.990Z,19.90
2023-04-27T14:44:41.332Z,19.70
2023-04-27T14:47:08.650Z,19.50
2023-04-27T14:49:35.898Z,19.40
2023-04-27T14:52:12.273Z,19.30
2023-04-27T14:54:44.821Z,19.30
2023-04-27T14:57:12.658Z,19.30
2023-04-27T14:59:41.065Z,19.30
2023-04-27T15:02:08.716Z,19.20
2023-04-27T15:04:38.306Z,19.10
2023-04-27T15:07:06.594Z,19.00
2023-04-27T15:09:34.294Z,18.90
2023-04-27T15:12:02.240Z,18.90
2023-04-27T15:14:29.835Z,18.80
2023-04-27T15:16:57.138Z,18.80
2023-04-27T15:19:24.468Z,19.00
2023-04-27T15:21:51.801Z,19.00
2023-04-27T15:24:19.190Z,18.90
2023-04-27T15:26:48.372Z,18.70
2023-04-27T15:29:16.066Z,18.60
2023-04-27T15:31:43.723Z,18.70
2023-04-27T15:34:11.280Z,18.70
2023-04-27T15:36:38.598Z,18.80
2023-04-27T15:39:09.322Z,18.80
2023-04-27T15:41:37.560Z,18.80
2023-04-27T15:44:06.580Z,18.90
2023-04-27T15:46:34.115Z,18.80
2023-04-27T15:49:01.601Z,18.80
2023-04-27T15:51:31.404Z,18.80
2023-04-27T15:53:59.918Z,18.80
2023-04-27T15:56:30.504Z,18.80
2023-04-27T15:58:58.460Z,18.70
2023-04-27T16:01:26.780Z,18.70
2023-04-27T16:03:54.433Z,18.80
2023-04-27T16:06:21.812Z,18.80
2023-04-27T16:08:49.257Z,18.80
2023-04-27T16:11:17.713Z,18.70
2023-04-27T16:13:45.929Z,18.60
2023-04-27T16:16:13.420Z,18.60
2023-04-27T16:18:41.501Z,18.60
2023-04-27T16:21:08.883Z,18.50
2023-04-27T16:23:37.371Z,18.40
2023-04-27T16:26:04.804Z,18.40
2023-04-27T16:28:32.912Z,18.30
2023-04-27T16:31:00.176Z,18.30
2023-04-27T16:33:27.711Z,18.20
2023-04-27T16:35:57.255Z,18.20
2023-04-27T16:38:25.970Z,18.20
2023-04-27T16:40:56.025Z,18.10
2023-04-27T16:43:25.334Z,18.10
2023-04-27T16:45:52.648Z,18.00
2023-04-27T16:48:20.447Z,18.00
2023-04-27T16:50:47.749Z,18.00
2023-04-27T16:53:19.715Z,18.00
2023-04-27T16:55:49.013Z,18.00
2023-04-27T16:58:16.730Z,18.00
2023-04-27T17:00:45.228Z,18.00
2023-04-27T17:03:13.001Z,17.90
2023-04-27T17:05:41.777Z,17.80
2023-04-27T17:08:10.905Z,17.80
2023-04-27T17:10:39.422Z,17.80
2023-04-27T17:13:07.745Z,17.80
2023-04-27T17:15:35.068Z,17.70
2023-04-27T17:18:04.853Z,17.60
2023-04-27T17:20:32.810Z,17.50
2023-04-27T17:23:00.191Z,17.40
2023-04-27T17:25:27.500Z,17.30
2023-04-27T17:27:54.774Z,17.20
2023-04-27T17:30:22.188Z,17.20
2023-04-27T17:32:49.633Z,17.10
2023-04-27T17:35:21.668Z,17.00
2023-04-27T17:37:51.936Z,16.90
2023-04-27T17:40:21.081Z,16.70
2023-04-27T17:42:50.052Z,16.60
2023-04-27T17:45:19.214Z,16.50
2023-04-27T17:47:46.846Z,16.40
2023-04-27T17:50:14.783Z,16.30
2023-04-27T17:52:42.133Z,16.20
2023-04-27T17:55:09.410Z,16.10
2023-04-27T17:57:36.772Z,16.00
2023-04-27T18:00:07.031Z,15.90
2023-04-27T18:02:37.108Z,15.80
2023-04-27T18:05:08.449Z,15.80
2023-04-27T18:07:41.662Z,15.70
2023-04-27T18:10:12.024Z,15.60
2023-04-27T18:12:39.400Z,15.50
2023-04-27T18:15:09.781Z,15.40
2023-04-27T18:17:37.704Z,15.30
2023-04-27T18:20:09.602Z,15.20
2023-04-27T18:22:42.015Z,15.10
2023-04-27T18:25:10.305Z,15.00
2023-04-27T18:27:37.818Z,14.80
2023-04-27T18:30:06.633Z,14.80
2023-04-27T18:32:34.643Z,14.70
2023-04-27T18:35:02.862Z,14.70
2023-04-27T18:37:30.734Z,14.70
2023-04-27T18:39:59.483Z,14.60
2023-04-27T18:42:27.078Z,14.60
2023-04-27T18:45:00.962Z,14.60
2023-04-27T18:47:28.975Z,14.60
2023-04-27T18:49:56.909Z,14.50
2023-04-27T18:52:25.745Z,14.30
2023-04-27T18:54:56.036Z,14.20
2023-04-27T18:57:25.359Z,14.20
2023-04-27T18:59:52.750Z,14.00
2023-04-27T19:02:21.926Z,13.90
2023-04-27T19:04:56.727Z,13.80
2023-04-27T19:07:29.204Z,13.70
2023-04-27T19:09:56.468Z,13.60
2023-04-27T19:12:24.461Z,13.60
2023-04-27T19:14:52.295Z,13.50
2023-04-27T19:17:19.934Z,13.40
2023-04-27T19:19:48.341Z,13.40
2023-04-27T19:22:15.863Z,13.30
2023-04-27T19:24:43.162Z,13.30
2023-04-27T19:27:11.715Z,13.20
2023-04-27T19:29:53.535Z,13.10
2023-04-27T19:32:22.234Z,12.90
2023-04-27T19:34:49.792Z,12.80
2023-04-27T19:37:17.081Z,12.70
2023-04-27T19:39:44.340Z,12.50
2023-04-27T19:42:11.627Z,12.40
2023-04-27T19:44:38.898Z,12.40
2023-04-27T19:47:06.683Z,12.30
2023-04-27T19:49:33.996Z,12.30
2023-04-27T19:52:01.325Z,12.20
2023-04-27T19:54:28.667Z,12.20
2023-04-27T19:56:56.203Z,12.10
2023-04-27T19:59:23.526Z,12.10
2023-04-27T20:01:51.092Z,12.10
2023-04-27T20:04:19.090Z,12.00
2023-04-27T20:06:47.283Z,11.90
2023-04-27T20:09:14.593Z,11.90
2023-04-27T20:11:41.961Z,11.80
2023-04-27T20:14:09.185Z,11.70
2023-04-27T20:16:36.593Z,11.50
2023-04-27T20:19:06.126Z,11.40
2023-04-27T20:21:33.577Z,11.30
2023-04-27T20:24:00.898Z,11.30
2023-04-27T20:26:28.608Z,11.20
2023-04-27T20:28:56.024Z,11.20
2023-04-27T20:31:23.339Z,11.20
2023-04-27T20:33:50.597Z,11.20
2023-04-27T20:36:18.835Z,11.20
2023-04-27T20:38:46.540Z,11.20
2023-04-27T20:41:14.392Z,11.20
2023-04-27T20:43:41.678Z,11.30
2023-04-27T20:46:11.056Z,11.30
2023-04-27T20:48:38.463Z,11.20
2023-04-27T20:51:05.764Z,11.10
2023-04-27T20:53:33.132Z,11.00
2023-04-27T20:56:00.411Z,10.90
2023-04-27T20:58:27.828Z,10.80
2023-04-27T21:00:55.162Z,10.70
2023-04-27T21:03:22.662Z,10.70
2023-04-27T21:05:50.270Z,10.70
2023-04-27T21:08:18.325Z,10.70
2023-04-27T21:10:45.770Z,10.70
2023-04-27T21:13:13.107Z,10.70
2023-04-27T21:15:40.431Z,10.70
2023-04-27T21:18:13.438Z,10.70
2023-04-27T21:20:46.457Z,10.70
2023-04-27T21:23:14.818Z,10.60
2023-04-27T21:25:46.335Z,10.60
2023-04-27T21:28:14.121Z,10.60
2023-04-27T21:30:41.479Z,10.60
2023-04-27T21:33:08.822Z,10.60
2023-04-27T21:35:36.393Z,10.60
2023-04-27T21:38:03.704Z,10.60
2023-04-27T21:40:30.973Z,10.60
2023-04-27T21:42:58.231Z,10.50
2023-04-27T21:45:25.491Z,10.50
2023-04-27T21:47:52.998Z,10.50
2023-04-27T21:50:20.488Z,10.50
2023-04-27T21:52:47.799Z,10.50
2023-04-27T21:55:15.526Z,10.40
2023-04-27T21:57:42.897Z,10.40
2023-04-27T22:00:14.049Z,10.20
2023-04-27T22:02:48.524Z,10.20
2023-04-27T22:05:16.381Z,10.20
2023-04-27T22:07:45.893Z,10.20
2023-04-27T22:10:13.248Z,10.10
2023-04-27T22:12:40.568Z,10.00
2023-04-27T22:15:08.413Z,10.00
2023-04-27T22:17:35.732Z,9.90
2023-04-27T22:20:04.944Z,9.80
2023-04-27T22:22:32.418Z,9.70
2023-04-27T22:24:59.727Z,9.70
2023-04-27T22:27:35.123Z,9.70
2023-04-27T22:30:06.688Z,9.70
2023-04-27T22:32:34.423Z,9.80
2023-04-27T22:35:02.130Z,9.80
2023-04-27T22:37:29.759Z,9.90
2023-04-27T22:39:58.344Z,9.90
2023-04-27T22:42:25.812Z,9.90
2023-04-27T22:44:53.016Z,10.00
2023-04-27T22:47:20.408Z,10.00
2023-04-27T22:49:48.747Z,10.00
2023-04-27T22:52:16.630Z,9.90
2023-04-27T22:54:43.930Z,9.90
2023-04-27T22:57:11.368Z,9.90
2023-04-27T22:59:38.687Z,9.90
2023-04-27T23:02:06.180Z,9.90
2023-04-27T23:04:33.776Z,9.90
2023-04-27T23:07:01.135Z,9.90
2023-04-27T23:09:28.436Z,9.90
2023-04-27T23:11:57.797Z,9.80
2023-04-27T23:14:25.159Z,9.80
2023-04-27T23:16:52.592Z,9.70
2023-04-27T23:19:19.863Z,9.70
2023-04-27T23:21:47.129Z,9.70
2023-04-27T23:24:14.738Z,9.60
2023-04-27T23:26:42.171Z,9.50
2023-04-27T23:29:09.528Z,9.50
2023-04-27T23:31:36.854Z,9.50
2023-04-27T23:34:04.376Z,9.40
2023-04-27T23:36:31.625Z,9.30
2023-04-27T23:38:58.903Z,9.30
2023-04-27T23:41:26.129Z,9.20
2023-04-27T23:43:53.402Z,9.20
2023-04-27T23:46:21.129Z,9.20
2023-04-27T23:48:48.461Z,9.20
2023-04-27T23:51:16.410Z,9.20
2023-04-27T23:53:43.695Z,9.10
2023-04-27T23:56:20.388Z,9.10
2023-04-27T23:58:47.640Z,9.10
